sensor_id;sensor_type;location;lat;lon;timestamp;pressure;altitude;pressure_sealevel;temperature;humidity
22333;BME280;11334;36.986;-121.936;2024-01-25T00:00:28;101406.06;;;16.49;100.00
22333;BME280;11334;36.986;-121.936;2024-01-25T00:02:54;101409.56;;;16.50;100.00
22333;BME280;11334;36.986;-121.936;2024-01-25T00:05:20;101409.75;;;16.48;100.00
22333;BME280;11334;36.986;-121.936;2024-01-25T00:07:50;101415.94;;;16.49;100.00
22333;BME280;11334;36.986;-121.936;2024-01-25T00:10:17;101411.78;;;16.46;100.00
22333;BME280;11334;36.986;-121.936;2024-01-25T00:12:44;101406.88;;;16.50;100.00
22333;BME280;11334;36.986;-121.936;2024-01-25T00:15:10;101406.72;;;16.51;100.00
22333;BME280;11334;36.986;-121.936;2024-01-25T00:17:37;101407.09;;;16.48;100.00
22333;BME280;11334;36.986;-121.936;2024-01-25T00:20:04;101413.91;;;16.51;100.00
22333;BME280;11334;36.986;-121.936;2024-01-25T00:22:31;101415.63;;;16.44;100.00
22333;BME280;11334;36.986;-121.936;2024-01-25T00:24:58;101432.97;;;16.48;100.00
22333;BME280;11334;36.986;-121.936;2024-01-25T00:27:25;101434.66;;;16.49;100.00
22333;BME280;11334;36.986;-121.936;2024-01-25T00:29:51;101429.84;;;16.44;100.00
22333;BME280;11334;36.986;-121.936;2024-01-25T00:32:17;101430.50;;;16.46;100.00
22333;BME280;11334;36.986;-121.936;2024-01-25T00:34:44;101439.50;;;16.45;100.00
22333;BME280;11334;36.986;-121.936;2024-01-25T00:37:11;101443.06;;;16.46;100.00
22333;BME280;11334;36.986;-121.936;2024-01-25T00:39:37;101450.41;;;16.44;100.00
22333;BME280;11334;36.986;-121.936;2024-01-25T00:42:05;101461.94;;;16.44;100.00
22333;BME280;11334;36.986;-121.936;2024-01-25T00:44:34;101454.06;;;16.43;100.00
22333;BME280;11334;36.986;-121.936;2024-01-25T00:47:01;101455.94;;;16.43;100.00
22333;BME280;11334;36.986;-121.936;2024-01-25T00:49:27;101457.09;;;16.40;100.00
22333;BME280;11334;36.986;-121.936;2024-01-25T00:51:58;101449.09;;;16.40;100.00
22333;BME280;11334;36.986;-121.936;2024-01-25T00:54:26;101443.13;;;16.30;100.00
22333;BME280;11334;36.986;-121.936;2024-01-25T00:56:52;101458.19;;;16.31;100.00
22333;BME280;11334;36.986;-121.936;2024-01-25T00:59:19;101449.81;;;16.34;100.00
22333;BME280;11334;36.986;-121.936;2024-01-25T01:01:48;101459.19;;;16.30;100.00
22333;BME280;11334;36.986;-121.936;2024-01-25T01:04:18;101454.69;;;16.31;100.00
22333;BME280;11334;36.986;-121.936;2024-01-25T01:06:44;101447.34;;;16.25;100.00
22333;BME280;11334;36.986;-121.936;2024-01-25T01:09:11;101444.88;;;16.23;100.00
22333;BME280;11334;36.986;-121.936;2024-01-25T01:11:37;101441.53;;;16.21;100.00
22333;BME280;11334;36.986;-121.936;2024-01-25T01:14:04;101446.72;;;16.15;100.00
22333;BME280;11334;36.986;-121.936;2024-01-25T01:16:30;101434.88;;;16.10;100.00
22333;BME280;11334;36.986;-121.936;2024-01-25T01:18:59;101434.88;;;16.10;100.00
22333;BME280;11334;36.986;-121.936;2024-01-25T01:21:33;101440.69;;;16.13;100.00
22333;BME280;11334;36.986;-121.936;2024-01-25T01:24:00;101433.56;;;16.13;100.00
22333;BME280;11334;36.986;-121.936;2024-01-25T01:26:26;101433.03;;;16.10;100.00
22333;BME280;11334;36.986;-121.936;2024-01-25T01:28:52;101440.06;;;16.11;100.00
22333;BME280;11334;36.986;-121.936;2024-01-25T01:31:18;101431.84;;;16.12;100.00
22333;BME280;11334;36.986;-121.936;2024-01-25T01:33:44;101431.00;;;16.12;100.00
22333;BME280;11334;36.986;-121.936;2024-01-25T01:36:11;101437.38;;;16.11;100.00
22333;BME280;11334;36.986;-121.936;2024-01-25T01:38:37;101435.88;;;16.09;100.00
22333;BME280;11334;36.986;-121.936;2024-01-25T01:41:03;101435.38;;;16.05;100.00
22333;BME280;11334;36.986;-121.936;2024-01-25T01:43:29;101442.22;;;16.08;100.00
22333;BME280;11334;36.986;-121.936;2024-01-25T01:46:00;101431.94;;;15.97;100.00
22333;BME280;11334;36.986;-121.936;2024-01-25T01:48:28;101444.63;;;15.95;100.00
22333;BME280;11334;36.986;-121.936;2024-01-25T01:50:54;101439.13;;;15.96;100.00
22333;BME280;11334;36.986;-121.936;2024-01-25T01:53:21;101443.28;;;15.91;100.00
22333;BME280;11334;36.986;-121.936;2024-01-25T01:55:48;101447.47;;;15.93;100.00
22333;BME280;11334;36.986;-121.936;2024-01-25T01:58:14;101448.13;;;15.95;100.00
22333;BME280;11334;36.986;-121.936;2024-01-25T02:00:41;101443.28;;;15.91;100.00
22333;BME280;11334;36.986;-121.936;2024-01-25T02:03:08;101443.28;;;15.91;100.00
22333;BME280;11334;36.986;-121.936;2024-01-25T02:05:35;101442.31;;;15.92;100.00
22333;BME280;11334;36.986;-121.936;2024-01-25T02:08:01;101444.47;;;15.88;100.00
22333;BME280;11334;36.986;-121.936;2024-01-25T02:10:28;101449.81;;;15.88;100.00
22333;BME280;11334;36.986;-121.936;2024-01-25T02:12:55;101449.50;;;15.91;100.00
22333;BME280;11334;36.986;-121.936;2024-01-25T02:15:21;101453.47;;;15.95;100.00
22333;BME280;11334;36.986;-121.936;2024-01-25T02:17:47;101451.00;;;15.94;100.00
22333;BME280;11334;36.986;-121.936;2024-01-25T02:20:14;101454.66;;;15.93;100.00
22333;BME280;11334;36.986;-121.936;2024-01-25T02:22:40;101463.00;;;15.98;100.00
22333;BME280;11334;36.986;-121.936;2024-01-25T02:25:06;101456.97;;;15.96;100.00
22333;BME280;11334;36.986;-121.936;2024-01-25T02:27:33;101449.50;;;15.91;100.00
22333;BME280;11334;36.986;-121.936;2024-01-25T02:30:05;101449.34;;;15.85;100.00
22333;BME280;11334;36.986;-121.936;2024-01-25T02:32:32;101458.84;;;15.87;100.00
22333;BME280;11334;36.986;-121.936;2024-01-25T02:34:59;101461.19;;;15.90;100.00
22333;BME280;11334;36.986;-121.936;2024-01-25T02:37:26;101472.38;;;15.86;100.00
22333;BME280;11334;36.986;-121.936;2024-01-25T02:39:52;101479.41;;;15.87;100.00
22333;BME280;11334;36.986;-121.936;2024-01-25T02:42:19;101475.72;;;15.88;100.00
22333;BME280;11334;36.986;-121.936;2024-01-25T02:44:45;101477.25;;;15.82;100.00
22333;BME280;11334;36.986;-121.936;2024-01-25T02:47:11;101477.91;;;15.84;100.00
22333;BME280;11334;36.986;-121.936;2024-01-25T02:49:37;101468.41;;;15.82;100.00
22333;BME280;11334;36.986;-121.936;2024-01-25T02:52:04;101479.25;;;15.80;100.00
22333;BME280;11334;36.986;-121.936;2024-01-25T02:54:30;101477.09;;;15.76;100.00
22333;BME280;11334;36.986;-121.936;2024-01-25T02:56:56;101470.56;;;15.79;100.00
22333;BME280;11334;36.986;-121.936;2024-01-25T02:59:22;101475.59;;;15.81;100.00
22333;BME280;11334;36.986;-121.936;2024-01-25T03:01:49;101475.09;;;15.78;100.00
22333;BME280;11334;36.986;-121.936;2024-01-25T03:04:15;101489.78;;;15.82;100.00
22333;BME280;11334;36.986;-121.936;2024-01-25T03:06:41;101490.78;;;15.89;100.00
22333;BME280;11334;36.986;-121.936;2024-01-25T03:09:08;101502.81;;;15.85;100.00
22333;BME280;11334;36.986;-121.936;2024-01-25T03:11:34;101499.66;;;15.81;100.00
22333;BME280;11334;36.986;-121.936;2024-01-25T03:14:00;101496.00;;;15.75;100.00
22333;BME280;11334;36.986;-121.936;2024-01-25T03:16:26;101502.00;;;15.77;100.00
22333;BME280;11334;36.986;-121.936;2024-01-25T03:18:52;101507.81;;;15.80;100.00
22333;BME280;11334;36.986;-121.936;2024-01-25T03:21:19;101509.34;;;15.75;100.00
22333;BME280;11334;36.986;-121.936;2024-01-25T03:23:45;101511.84;;;15.76;100.00
22333;BME280;11334;36.986;-121.936;2024-01-25T03:26:11;101502.50;;;15.72;100.00
22333;BME280;11334;36.986;-121.936;2024-01-25T03:28:37;101503.00;;;15.68;100.00
22333;BME280;11334;36.986;-121.936;2024-01-25T03:31:06;101494.31;;;15.74;100.00
22333;BME280;11334;36.986;-121.936;2024-01-25T03:33:32;101496.00;;;15.75;100.00
22333;BME280;11334;36.986;-121.936;2024-01-25T03:36:05;101497.84;;;15.74;100.00
22333;BME280;11334;36.986;-121.936;2024-01-25T03:38:32;101496.81;;;15.75;100.00
22333;BME280;11334;36.986;-121.936;2024-01-25T03:40:58;101503.00;;;15.76;100.00
22333;BME280;11334;36.986;-121.936;2024-01-25T03:43:25;101500.81;;;15.71;100.00
22333;BME280;11334;36.986;-121.936;2024-01-25T03:45:51;101519.22;;;15.74;100.00
22333;BME280;11334;36.986;-121.936;2024-01-25T03:48:17;101513.88;;;15.74;100.00
22333;BME280;11334;36.986;-121.936;2024-01-25T03:50:44;101513.00;;;15.74;100.00
22333;BME280;11334;36.986;-121.936;2024-01-25T03:53:10;101507.66;;;15.74;100.00
22333;BME280;11334;36.986;-121.936;2024-01-25T03:55:36;101510.66;;;15.79;100.00
22333;BME280;11334;36.986;-121.936;2024-01-25T03:58:03;101514.03;;;15.73;100.00
22333;BME280;11334;36.986;-121.936;2024-01-25T04:00:29;101519.22;;;15.74;100.00
22333;BME280;11334;36.986;-121.936;2024-01-25T04:02:55;101526.69;;;15.79;100.00
22333;BME280;11334;36.986;-121.936;2024-01-25T04:05:21;101524.88;;;15.79;100.00
22333;BME280;11334;36.986;-121.936;2024-01-25T04:07:48;101532.38;;;15.76;100.00
22333;BME280;11334;36.986;-121.936;2024-01-25T04:10:14;101541.91;;;15.70;100.00
22333;BME280;11334;36.986;-121.936;2024-01-25T04:12:40;101533.41;;;15.75;100.00
22333;BME280;11334;36.986;-121.936;2024-01-25T04:15:06;101519.19;;;15.66;100.00
22333;BME280;11334;36.986;-121.936;2024-01-25T04:17:33;101523.06;;;15.72;100.00
22333;BME280;11334;36.986;-121.936;2024-01-25T04:19:59;101546.75;;;15.75;100.00
22333;BME280;11334;36.986;-121.936;2024-01-25T04:22:25;101548.59;;;15.74;100.00
22333;BME280;11334;36.986;-121.936;2024-01-25T04:24:51;101553.41;;;15.79;100.00
22333;BME280;11334;36.986;-121.936;2024-01-25T04:27:18;101561.63;;;15.77;100.00
22333;BME280;11334;36.986;-121.936;2024-01-25T04:29:45;101567.63;;;15.71;100.00
22333;BME280;11334;36.986;-121.936;2024-01-25T04:32:12;101570.81;;;15.75;100.00
22333;BME280;11334;36.986;-121.936;2024-01-25T04:34:38;101566.63;;;15.72;100.00
22333;BME280;11334;36.986;-121.936;2024-01-25T04:37:05;101573.81;;;15.72;100.00
22333;BME280;11334;36.986;-121.936;2024-01-25T04:39:31;101562.28;;;15.71;100.00
22333;BME280;11334;36.986;-121.936;2024-01-25T04:41:57;101577.31;;;15.72;100.00
22333;BME280;11334;36.986;-121.936;2024-01-25T04:44:23;101565.13;;;15.70;100.00
22333;BME280;11334;36.986;-121.936;2024-01-25T04:46:50;101564.94;;;15.71;100.00
22333;BME280;11334;36.986;-121.936;2024-01-25T04:49:17;101565.13;;;15.70;100.00
22333;BME280;11334;36.986;-121.936;2024-01-25T04:51:44;101564.47;;;15.60;100.00
22333;BME280;11334;36.986;-121.936;2024-01-25T04:54:10;101558.28;;;15.67;100.00
22333;BME280;11334;36.986;-121.936;2024-01-25T04:56:39;101557.94;;;15.70;100.00
22333;BME280;11334;36.986;-121.936;2024-01-25T04:59:05;101572.31;;;15.69;100.00
22333;BME280;11334;36.986;-121.936;2024-01-25T05:01:31;101572.66;;;15.74;100.00
22333;BME280;11334;36.986;-121.936;2024-01-25T05:03:57;101571.63;;;15.75;100.00
22333;BME280;11334;36.986;-121.936;2024-01-25T05:06:23;101573.63;;;15.73;100.00
22333;BME280;11334;36.986;-121.936;2024-01-25T05:08:49;101577.97;;;15.66;100.00
22333;BME280;11334;36.986;-121.936;2024-01-25T05:11:16;101572.81;;;15.65;100.00
22333;BME280;11334;36.986;-121.936;2024-01-25T05:13:42;101580.66;;;15.66;100.00
22333;BME280;11334;36.986;-121.936;2024-01-25T05:16:08;101592.34;;;15.65;100.00
22333;BME280;11334;36.986;-121.936;2024-01-25T05:18:35;101590.00;;;15.70;100.00
22333;BME280;11334;36.986;-121.936;2024-01-25T05:21:01;101571.81;;;15.66;100.00
22333;BME280;11334;36.986;-121.936;2024-01-25T05:23:27;101585.84;;;15.68;100.00
22333;BME280;11334;36.986;-121.936;2024-01-25T05:25:54;101590.34;;;15.67;100.00
22333;BME280;11334;36.986;-121.936;2024-01-25T05:28:20;101582.81;;;15.71;100.00
22333;BME280;11334;36.986;-121.936;2024-01-25T05:30:46;101588.84;;;15.73;100.00
22333;BME280;11334;36.986;-121.936;2024-01-25T05:33:12;101591.34;;;15.74;100.00
22333;BME280;11334;36.986;-121.936;2024-01-25T05:35:38;101591.19;;;15.68;100.00
22333;BME280;11334;36.986;-121.936;2024-01-25T05:38:05;101588.34;;;15.77;100.00
22333;BME280;11334;36.986;-121.936;2024-01-25T05:40:32;101593.69;;;15.77;100.00
22333;BME280;11334;36.986;-121.936;2024-01-25T05:42:58;101591.84;;;15.70;100.00
22333;BME280;11334;36.986;-121.936;2024-01-25T05:45:25;101588.66;;;15.66;100.00
22333;BME280;11334;36.986;-121.936;2024-01-25T05:47:51;101591.34;;;15.74;100.00
22333;BME280;11334;36.986;-121.936;2024-01-25T05:50:18;101592.19;;;15.75;100.00
22333;BME280;11334;36.986;-121.936;2024-01-25T05:52:44;101590.34;;;15.67;100.00
22333;BME280;11334;36.986;-121.936;2024-01-25T05:55:11;101599.69;;;15.71;100.00
22333;BME280;11334;36.986;-121.936;2024-01-25T05:57:39;101601.19;;;15.66;100.00
22333;BME280;11334;36.986;-121.936;2024-01-25T06:00:06;101585.66;;;15.61;100.00
22333;BME280;11334;36.986;-121.936;2024-01-25T06:02:33;101597.00;;;15.71;100.00
22333;BME280;11334;36.986;-121.936;2024-01-25T06:04:59;101601.53;;;15.71;100.00
22333;BME280;11334;36.986;-121.936;2024-01-25T06:07:26;101592.19;;;15.75;100.00
22333;BME280;11334;36.986;-121.936;2024-01-25T06:09:52;101601.19;;;15.74;100.00
22333;BME280;11334;36.986;-121.936;2024-01-25T06:12:19;101598.00;;;15.78;100.00
22333;BME280;11334;36.986;-121.936;2024-01-25T06:14:45;101600.88;;;15.77;100.00
22333;BME280;11334;36.986;-121.936;2024-01-25T06:17:11;101613.38;;;15.76;100.00
22333;BME280;11334;36.986;-121.936;2024-01-25T06:19:37;101597.34;;;15.76;100.00
22333;BME280;11334;36.986;-121.936;2024-01-25T06:22:03;101611.91;;;15.81;100.00
22333;BME280;11334;36.986;-121.936;2024-01-25T06:24:30;101617.06;;;15.83;100.00
22333;BME280;11334;36.986;-121.936;2024-01-25T06:26:56;101619.72;;;15.91;100.00
22333;BME280;11334;36.986;-121.936;2024-01-25T06:29:22;101613.88;;;15.87;100.00
22333;BME280;11334;36.986;-121.936;2024-01-25T06:31:48;101622.91;;;15.86;100.00
22333;BME280;11334;36.986;-121.936;2024-01-25T06:34:15;101626.56;;;15.85;100.00
22333;BME280;11334;36.986;-121.936;2024-01-25T06:36:41;101624.59;;;15.80;100.00
22333;BME280;11334;36.986;-121.936;2024-01-25T06:39:07;101616.56;;;15.80;100.00
22333;BME280;11334;36.986;-121.936;2024-01-25T06:41:34;101616.06;;;15.76;100.00
22333;BME280;11334;36.986;-121.936;2024-01-25T06:44:00;101614.22;;;15.69;100.00
22333;BME280;11334;36.986;-121.936;2024-01-25T06:46:26;101619.91;;;15.66;100.00
22333;BME280;11334;36.986;-121.936;2024-01-25T06:48:53;101603.38;;;15.62;100.00
22333;BME280;11334;36.986;-121.936;2024-01-25T06:51:19;101608.06;;;15.60;100.00
22333;BME280;11334;36.986;-121.936;2024-01-25T06:53:45;101614.72;;;15.56;100.00
22333;BME280;11334;36.986;-121.936;2024-01-25T06:56:12;101612.22;;;15.55;100.00
22333;BME280;11334;36.986;-121.936;2024-01-25T06:58:38;101618.06;;;15.58;100.00
22333;BME280;11334;36.986;-121.936;2024-01-25T07:01:04;101609.22;;;15.50;100.00
22333;BME280;11334;36.986;-121.936;2024-01-25T07:03:31;101601.91;;;15.52;100.00
22333;BME280;11334;36.986;-121.936;2024-01-25T07:05:57;101614.38;;;15.51;100.00
22333;BME280;11334;36.986;-121.936;2024-01-25T07:08:23;101607.72;;;15.48;100.00
22333;BME280;11334;36.986;-121.936;2024-01-25T07:10:50;101604.88;;;15.41;100.00
22333;BME280;11334;36.986;-121.936;2024-01-25T07:13:16;101606.56;;;15.42;100.00
22333;BME280;11334;36.986;-121.936;2024-01-25T07:15:42;101626.25;;;15.41;100.00
22333;BME280;11334;36.986;-121.936;2024-01-25T07:18:08;101628.91;;;15.41;100.00
22333;BME280;11334;36.986;-121.936;2024-01-25T07:20:34;101625.75;;;15.38;100.00
22333;BME280;11334;36.986;-121.936;2024-01-25T07:23:01;101627.25;;;15.32;100.00
22333;BME280;11334;36.986;-121.936;2024-01-25T07:25:27;101627.25;;;15.32;100.00
22333;BME280;11334;36.986;-121.936;2024-01-25T07:27:53;101618.56;;;15.30;100.00
22333;BME280;11334;36.986;-121.936;2024-01-25T07:30:19;101627.56;;;15.29;100.00
22333;BME280;11334;36.986;-121.936;2024-01-25T07:32:46;101618.72;;;15.21;100.00
22333;BME280;11334;36.986;-121.936;2024-01-25T07:35:12;101620.72;;;15.19;100.00
22333;BME280;11334;36.986;-121.936;2024-01-25T07:37:39;101630.41;;;15.20;100.00
22333;BME280;11334;36.986;-121.936;2024-01-25T07:40:09;101627.75;;;15.20;100.00
22333;BME280;11334;36.986;-121.936;2024-01-25T07:42:35;101623.88;;;15.15;100.00
22333;BME280;11334;36.986;-121.936;2024-01-25T07:45:01;101624.72;;;15.15;100.00
22333;BME280;11334;36.986;-121.936;2024-01-25T07:47:27;101626.53;;;15.15;100.00
22333;BME280;11334;36.986;-121.936;2024-01-25T07:49:54;101625.88;;;15.13;100.00
22333;BME280;11334;36.986;-121.936;2024-01-25T07:52:20;101619.53;;;15.14;100.00
22333;BME280;11334;36.986;-121.936;2024-01-25T07:54:46;101610.69;;;15.13;100.00
22333;BME280;11334;36.986;-121.936;2024-01-25T07:57:12;101611.72;;;15.12;100.00
22333;BME280;11334;36.986;-121.936;2024-01-25T07:59:38;101608.00;;;15.05;100.00
22333;BME280;11334;36.986;-121.936;2024-01-25T08:02:05;101599.97;;;15.05;100.00
22333;BME280;11334;36.986;-121.936;2024-01-25T08:04:31;101590.81;;;15.08;100.00
22333;BME280;11334;36.986;-121.936;2024-01-25T08:06:57;101595.31;;;15.07;100.00
22333;BME280;11334;36.986;-121.936;2024-01-25T08:09:24;101595.97;;;15.01;100.00
22333;BME280;11334;36.986;-121.936;2024-01-25T08:11:50;101582.94;;;14.98;100.00
22333;BME280;11334;36.986;-121.936;2024-01-25T08:14:17;101578.63;;;15.05;100.00
22333;BME280;11334;36.986;-121.936;2024-01-25T08:16:44;101577.97;;;15.03;100.00
22333;BME280;11334;36.986;-121.936;2024-01-25T08:19:10;101586.63;;;15.05;100.00
22333;BME280;11334;36.986;-121.936;2024-01-25T08:21:36;101580.28;;;15.06;100.00
22333;BME280;11334;36.986;-121.936;2024-01-25T08:24:03;101588.63;;;15.03;100.00
22333;BME280;11334;36.986;-121.936;2024-01-25T08:26:29;101594.13;;;15.02;100.00
22333;BME280;11334;36.986;-121.936;2024-01-25T08:28:56;101580.78;;;15.02;100.00
22333;BME280;11334;36.986;-121.936;2024-01-25T08:31:22;101581.13;;;14.99;100.00
22333;BME280;11334;36.986;-121.936;2024-01-25T08:33:48;101592.47;;;15.01;100.00
22333;BME280;11334;36.986;-121.936;2024-01-25T08:36:18;101590.63;;;15.01;100.00
22333;BME280;11334;36.986;-121.936;2024-01-25T08:38:44;101592.44;;;14.93;100.00
22333;BME280;11334;36.986;-121.936;2024-01-25T08:41:10;101593.94;;;14.87;100.00
22333;BME280;11334;36.986;-121.936;2024-01-25T08:43:37;101588.75;;;14.86;100.00
22333;BME280;11334;36.986;-121.936;2024-01-25T08:46:04;101591.28;;;14.87;100.00
22333;BME280;11334;36.986;-121.936;2024-01-25T08:48:30;101595.59;;;14.88;100.00
22333;BME280;11334;36.986;-121.936;2024-01-25T08:50:56;101599.78;;;14.91;100.00
22333;BME280;11334;36.986;-121.936;2024-01-25T08:53:23;101603.13;;;14.85;100.00
22333;BME280;11334;36.986;-121.936;2024-01-25T08:55:53;101595.06;;;14.77;100.00
22333;BME280;11334;36.986;-121.936;2024-01-25T08:58:20;101603.75;;;14.79;100.00
22333;BME280;11334;36.986;-121.936;2024-01-25T09:00:46;101584.38;;;14.69;100.00
22333;BME280;11334;36.986;-121.936;2024-01-25T09:03:14;101585.88;;;14.72;100.00
22333;BME280;11334;36.986;-121.936;2024-01-25T09:05:41;101604.41;;;14.73;100.00
22333;BME280;11334;36.986;-121.936;2024-01-25T09:08:14;101605.72;;;14.69;100.00
22333;BME280;11334;36.986;-121.936;2024-01-25T09:10:41;101602.06;;;14.70;100.00
22333;BME280;11334;36.986;-121.936;2024-01-25T09:13:08;101608.22;;;14.71;100.00
22333;BME280;11334;36.986;-121.936;2024-01-25T09:15:35;101610.56;;;14.74;100.00
22333;BME280;11334;36.986;-121.936;2024-01-25T09:18:01;101601.56;;;14.75;100.00
22333;BME280;11334;36.986;-121.936;2024-01-25T09:20:27;101604.22;;;14.75;100.00
22333;BME280;11334;36.986;-121.936;2024-01-25T09:22:54;101599.91;;;14.74;100.00
22333;BME280;11334;36.986;-121.936;2024-01-25T09:25:21;101603.06;;;14.77;100.00
22333;BME280;11334;36.986;-121.936;2024-01-25T09:27:47;101591.41;;;14.70;100.00
22333;BME280;11334;36.986;-121.936;2024-01-25T09:30:14;101605.09;;;14.75;100.00
22333;BME280;11334;36.986;-121.936;2024-01-25T09:32:40;101601.38;;;14.68;100.00
22333;BME280;11334;36.986;-121.936;2024-01-25T09:35:07;101600.84;;;14.65;100.00
22333;BME280;11334;36.986;-121.936;2024-01-25T09:37:33;101605.53;;;14.63;100.00
22333;BME280;11334;36.986;-121.936;2024-01-25T09:39:59;101620.06;;;14.68;100.00
22333;BME280;11334;36.986;-121.936;2024-01-25T09:42:26;101616.03;;;14.64;100.00
22333;BME280;11334;36.986;-121.936;2024-01-25T09:44:54;101621.84;;;14.60;100.00
22333;BME280;11334;36.986;-121.936;2024-01-25T09:47:21;101619.00;;;14.53;100.00
22333;BME280;11334;36.986;-121.936;2024-01-25T09:49:48;101616.16;;;14.55;100.00
22333;BME280;11334;36.986;-121.936;2024-01-25T09:52:14;101620.63;;;14.47;100.00
22333;BME280;11334;36.986;-121.936;2024-01-25T09:54:42;101624.78;;;14.41;100.00
22333;BME280;11334;36.986;-121.936;2024-01-25T09:57:14;101622.25;;;14.40;100.00
22333;BME280;11334;36.986;-121.936;2024-01-25T09:59:44;101627.09;;;14.36;100.00
22333;BME280;11334;36.986;-121.936;2024-01-25T10:02:11;101641.03;;;14.30;100.00
22333;BME280;11334;36.986;-121.936;2024-01-25T10:04:37;101641.53;;;14.26;100.00
22333;BME280;11334;36.986;-121.936;2024-01-25T10:07:04;101650.88;;;14.30;100.00
22333;BME280;11334;36.986;-121.936;2024-01-25T10:09:41;101651.06;;;14.28;100.00
22333;BME280;11334;36.986;-121.936;2024-01-25T10:12:08;101655.16;;;14.23;100.00
22333;BME280;11334;36.986;-121.936;2024-01-25T10:14:34;101654.78;;;14.18;100.00
22333;BME280;11334;36.986;-121.936;2024-01-25T10:17:01;101647.53;;;14.03;100.00
22333;BME280;11334;36.986;-121.936;2024-01-25T10:19:27;101654.69;;;14.02;100.00
22333;BME280;11334;36.986;-121.936;2024-01-25T10:21:53;101657.50;;;14.01;100.00
22333;BME280;11334;36.986;-121.936;2024-01-25T10:24:19;101655.44;;;13.95;100.00
22333;BME280;11334;36.986;-121.936;2024-01-25T10:26:48;101659.94;;;13.94;100.00
22333;BME280;11334;36.986;-121.936;2024-01-25T10:29:15;101659.72;;;13.88;100.00
22333;BME280;11334;36.986;-121.936;2024-01-25T10:31:41;101667.50;;;13.82;100.00
22333;BME280;11334;36.986;-121.936;2024-01-25T10:34:13;101669.50;;;13.80;100.00
22333;BME280;11334;36.986;-121.936;2024-01-25T10:36:41;101668.13;;;13.76;100.00
22333;BME280;11334;36.986;-121.936;2024-01-25T10:39:08;101668.06;;;13.68;100.00
22333;BME280;11334;36.986;-121.936;2024-01-25T10:41:35;101672.69;;;13.66;100.00
22333;BME280;11334;36.986;-121.936;2024-01-25T10:44:01;101658.78;;;13.55;100.00
22333;BME280;11334;36.986;-121.936;2024-01-25T10:46:29;101662.44;;;13.54;100.00
22333;BME280;11334;36.986;-121.936;2024-01-25T10:48:57;101657.03;;;13.46;100.00
22333;BME280;11334;36.986;-121.936;2024-01-25T10:51:26;101663.88;;;13.48;100.00
22333;BME280;11334;36.986;-121.936;2024-01-25T10:53:53;101654.69;;;13.43;100.00
22333;BME280;11334;36.986;-121.936;2024-01-25T10:56:19;101671.41;;;13.35;100.00
22333;BME280;11334;36.986;-121.936;2024-01-25T10:58:45;101675.66;;;13.28;100.00
22333;BME280;11334;36.986;-121.936;2024-01-25T11:01:12;101680.53;;;13.33;100.00
22333;BME280;11334;36.986;-121.936;2024-01-25T11:03:39;101682.69;;;13.29;100.00
22333;BME280;11334;36.986;-121.936;2024-01-25T11:06:10;101678.63;;;13.26;100.00
22333;BME280;11334;36.986;-121.936;2024-01-25T11:08:39;101688.59;;;13.24;100.00
22333;BME280;11334;36.986;-121.936;2024-01-25T11:11:07;101695.88;;;13.22;100.00
22333;BME280;11334;36.986;-121.936;2024-01-25T11:13:39;101695.09;;;13.12;100.00
22333;BME280;11334;36.986;-121.936;2024-01-25T11:18:50;101691.66;;;13.02;100.00
22333;BME280;11334;36.986;-121.936;2024-01-25T11:21:39;101709.63;;;13.00;100.00
22333;BME280;11334;36.986;-121.936;2024-01-25T11:24:11;101703.22;;;12.93;100.00
22333;BME280;11334;36.986;-121.936;2024-01-25T11:26:38;101711.50;;;12.90;100.00
22333;BME280;11334;36.986;-121.936;2024-01-25T11:29:04;101726.06;;;12.86;100.00
22333;BME280;11334;36.986;-121.936;2024-01-25T11:31:31;101724.13;;;12.79;100.00
22333;BME280;11334;36.986;-121.936;2024-01-25T11:33:58;101713.63;;;12.77;100.00
22333;BME280;11334;36.986;-121.936;2024-01-25T11:36:25;101714.34;;;12.79;100.00
22333;BME280;11334;36.986;-121.936;2024-01-25T11:38:52;101727.78;;;12.78;100.00
22333;BME280;11334;36.986;-121.936;2024-01-25T11:41:19;101733.78;;;12.80;100.00
22333;BME280;11334;36.986;-121.936;2024-01-25T11:43:48;101723.00;;;12.72;100.00
22333;BME280;11334;36.986;-121.936;2024-01-25T11:46:14;101718.44;;;12.64;100.00
22333;BME280;11334;36.986;-121.936;2024-01-25T11:48:41;101727.94;;;12.67;100.00
22333;BME280;11334;36.986;-121.936;2024-01-25T11:51:10;101727.09;;;12.66;100.00
22333;BME280;11334;36.986;-121.936;2024-01-25T11:53:37;101725.88;;;12.61;100.00
22333;BME280;11334;36.986;-121.936;2024-01-25T11:56:07;101731.47;;;12.58;100.00
22333;BME280;11334;36.986;-121.936;2024-01-25T11:58:36;101726.88;;;12.51;100.00
22333;BME280;11334;36.986;-121.936;2024-01-25T12:01:02;101721.00;;;12.47;100.00
22333;BME280;11334;36.986;-121.936;2024-01-25T12:03:32;101720.19;;;12.37;100.00
22333;BME280;11334;36.986;-121.936;2024-01-25T12:05:59;101731.09;;;12.44;100.00
22333;BME280;11334;36.986;-121.936;2024-01-25T12:08:26;101734.06;;;12.41;100.00
22333;BME280;11334;36.986;-121.936;2024-01-25T12:11:02;101721.06;;;12.38;100.00